sensor_id;sensor_type;location;lat;lon;timestamp;pressure;altitude;pressure_sealevel;temperature;humidity
26436;BME280;15351;52.408;16.826;2024-01-15T00:02:24;98621.56;;;4.77;80.26
26436;BME280;15351;52.408;16.826;2024-01-15T00:04:51;98614.54;;;4.75;80.28
26436;BME280;15351;52.408;16.826;2024-01-15T00:07:18;98604.59;;;4.74;80.31
26436;BME280;15351;52.408;16.826;2024-01-15T00:09:44;98607.05;;;4.74;80.52
26436;BME280;15351;52.408;16.826;2024-01-15T00:12:10;98600.39;;;4.73;80.35
26436;BME280;15351;52.408;16.826;2024-01-15T00:14:36;98596.64;;;4.76;80.48
26436;BME280;15351;52.408;16.826;2024-01-15T00:17:03;98591.55;;;4.78;80.32
26436;BME280;15351;52.408;16.826;2024-01-15T00:19:30;98582.19;;;4.76;80.22
26436;BME280;15351;52.408;16.826;2024-01-15T00:21:58;98580.80;;;4.76;80.21
26436;BME280;15351;52.408;16.826;2024-01-15T00:24:25;98579.13;;;4.75;80.16
26436;BME280;15351;52.408;16.826;2024-01-15T00:26:51;98578.52;;;4.74;80.23
26436;BME280;15351;52.408;16.826;2024-01-15T00:29:17;98579.98;;;4.73;80.26
26436;BME280;15351;52.408;16.826;2024-01-15T00:31:43;98569.17;;;4.74;80.24
26436;BME280;15351;52.408;16.826;2024-01-15T00:34:09;98562.63;;;4.72;80.01
26436;BME280;15351;52.408;16.826;2024-01-15T00:36:36;98563.38;;;4.68;80.14
26436;BME280;15351;52.408;16.826;2024-01-15T00:39:02;98560.05;;;4.70;80.29
26436;BME280;15351;52.408;16.826;2024-01-15T00:41:31;98559.69;;;4.66;80.20
26436;BME280;15351;52.408;16.826;2024-01-15T00:43:58;98559.45;;;4.67;80.38
26436;BME280;15351;52.408;16.826;2024-01-15T00:46:24;98549.46;;;4.69;80.27
26436;BME280;15351;52.408;16.826;2024-01-15T00:48:51;98544.80;;;4.69;80.27
26436;BME280;15351;52.408;16.826;2024-01-15T00:51:17;98541.16;;;4.68;80.21
26436;BME280;15351;52.408;16.826;2024-01-15T00:53:43;98542.69;;;4.69;80.21
26436;BME280;15351;52.408;16.826;2024-01-15T00:56:09;98542.33;;;4.67;80.14
26436;BME280;15351;52.408;16.826;2024-01-15T00:58:36;98536.86;;;4.63;80.23
26436;BME280;15351;52.408;16.826;2024-01-15T01:01:03;98533.09;;;4.64;80.40
26436;BME280;15351;52.408;16.826;2024-01-15T01:03:29;98526.59;;;4.66;80.33
26436;BME280;15351;52.408;16.826;2024-01-15T01:05:58;98527.27;;;4.65;80.16
26436;BME280;15351;52.408;16.826;2024-01-15T01:08:25;98522.45;;;4.64;80.26
26436;BME280;15351;52.408;16.826;2024-01-15T01:10:51;98522.36;;;4.63;80.29
26436;BME280;15351;52.408;16.826;2024-01-15T01:13:19;98524.48;;;4.62;80.24
26436;BME280;15351;52.408;16.826;2024-01-15T01:15:45;98523.51;;;4.59;80.30
26436;BME280;15351;52.408;16.826;2024-01-15T01:18:11;98518.91;;;4.60;80.48
26436;BME280;15351;52.408;16.826;2024-01-15T01:20:38;98513.48;;;4.62;80.44
26436;BME280;15351;52.408;16.826;2024-01-15T01:23:04;98506.46;;;4.62;80.35
26436;BME280;15351;52.408;16.826;2024-01-15T01:25:31;98505.15;;;4.63;80.34
26436;BME280;15351;52.408;16.826;2024-01-15T01:27:57;98500.67;;;4.63;80.28
26436;BME280;15351;52.408;16.826;2024-01-15T01:30:23;98498.61;;;4.63;80.27
26436;BME280;15351;52.408;16.826;2024-01-15T01:32:49;98493.05;;;4.61;80.16
26436;BME280;15351;52.408;16.826;2024-01-15T01:35:16;98487.25;;;4.60;80.33
26436;BME280;15351;52.408;16.826;2024-01-15T01:37:42;98478.79;;;4.59;80.31
26436;BME280;15351;52.408;16.826;2024-01-15T01:40:08;98477.16;;;4.57;80.32
26436;BME280;15351;52.408;16.826;2024-01-15T01:42:34;98473.11;;;4.55;80.24
26436;BME280;15351;52.408;16.826;2024-01-15T01:45:00;98466.61;;;4.53;80.33
26436;BME280;15351;52.408;16.826;2024-01-15T01:47:27;98462.77;;;4.54;80.35
26436;BME280;15351;52.408;16.826;2024-01-15T01:49:54;98462.52;;;4.53;80.42
26436;BME280;15351;52.408;16.826;2024-01-15T01:52:21;98462.12;;;4.52;80.33
26436;BME280;15351;52.408;16.826;2024-01-15T01:54:47;98455.30;;;4.51;80.21
26436;BME280;15351;52.408;16.826;2024-01-15T01:57:15;98454.70;;;4.50;80.33
26436;BME280;15351;52.408;16.826;2024-01-15T01:59:42;98450.20;;;4.47;80.30
26436;BME280;15351;52.408;16.826;2024-01-15T02:02:09;98447.64;;;4.45;80.42
26436;BME280;15351;52.408;16.826;2024-01-15T02:04:35;98445.95;;;4.44;80.35
26436;BME280;15351;52.408;16.826;2024-01-15T02:07:02;98437.88;;;4.46;80.41
26436;BME280;15351;52.408;16.826;2024-01-15T02:09:29;98425.23;;;4.46;80.28
26436;BME280;15351;52.408;16.826;2024-01-15T02:11:55;98422.71;;;4.48;80.23
26436;BME280;15351;52.408;16.826;2024-01-15T02:14:22;98423.67;;;4.46;80.23
26436;BME280;15351;52.408;16.826;2024-01-15T02:16:49;98421.46;;;4.47;80.39
26436;BME280;15351;52.408;16.826;2024-01-15T02:19:16;98414.55;;;4.49;80.53
26436;BME280;15351;52.408;16.826;2024-01-15T02:21:43;98419.75;;;4.53;80.41
26436;BME280;15351;52.408;16.826;2024-01-15T02:24:09;98417.18;;;4.56;80.18
26436;BME280;15351;52.408;16.826;2024-01-15T02:26:36;98413.17;;;4.53;79.93
26436;BME280;15351;52.408;16.826;2024-01-15T02:29:08;98404.67;;;4.47;80.12
26436;BME280;15351;52.408;16.826;2024-01-15T02:31:38;98410.83;;;4.50;80.05
26436;BME280;15351;52.408;16.826;2024-01-15T02:34:05;98395.31;;;4.47;80.01
26436;BME280;15351;52.408;16.826;2024-01-15T02:36:32;98389.56;;;4.47;80.04
26436;BME280;15351;52.408;16.826;2024-01-15T02:38:58;98388.16;;;4.51;80.23
26436;BME280;15351;52.408;16.826;2024-01-15T02:41:24;98383.33;;;4.51;79.98
26436;BME280;15351;52.408;16.826;2024-01-15T02:43:51;98379.45;;;4.50;79.86
26436;BME280;15351;52.408;16.826;2024-01-15T02:46:18;98375.59;;;4.47;79.81
26436;BME280;15351;52.408;16.826;2024-01-15T02:48:46;98375.91;;;4.46;79.84
26436;BME280;15351;52.408;16.826;2024-01-15T02:51:14;98370.81;;;4.44;79.84
26436;BME280;15351;52.408;16.826;2024-01-15T02:53:40;98367.31;;;4.43;79.94
26436;BME280;15351;52.408;16.826;2024-01-15T02:56:07;98358.80;;;4.46;79.90
26436;BME280;15351;52.408;16.826;2024-01-15T02:58:34;98349.45;;;4.47;79.77
26436;BME280;15351;52.408;16.826;2024-01-15T03:01:01;98342.96;;;4.43;79.60
26436;BME280;15351;52.408;16.826;2024-01-15T03:03:28;98332.90;;;4.42;79.69
26436;BME280;15351;52.408;16.826;2024-01-15T03:05:54;98331.89;;;4.43;79.83
26436;BME280;15351;52.408;16.826;2024-01-15T03:08:21;98329.65;;;4.45;79.78
26436;BME280;15351;52.408;16.826;2024-01-15T03:10:49;98329.39;;;4.49;79.73
26436;BME280;15351;52.408;16.826;2024-01-15T03:13:15;98328.31;;;4.52;79.66
26436;BME280;15351;52.408;16.826;2024-01-15T03:15:41;98320.66;;;4.51;79.69
26436;BME280;15351;52.408;16.826;2024-01-15T03:18:07;98322.36;;;4.48;79.67
26436;BME280;15351;52.408;16.826;2024-01-15T03:20:34;98320.30;;;4.46;79.83
26436;BME280;15351;52.408;16.826;2024-01-15T03:23:00;98319.55;;;4.45;79.89
26436;BME280;15351;52.408;16.826;2024-01-15T03:25:26;98316.33;;;4.43;79.79
26436;BME280;15351;52.408;16.826;2024-01-15T03:27:53;98309.35;;;4.43;80.01
26436;BME280;15351;52.408;16.826;2024-01-15T03:30:20;98310.45;;;4.44;79.89
26436;BME280;15351;52.408;16.826;2024-01-15T03:32:47;98307.24;;;4.43;79.81
26436;BME280;15351;52.408;16.826;2024-01-15T03:35:13;98311.30;;;4.42;79.97
26436;BME280;15351;52.408;16.826;2024-01-15T03:37:40;98307.08;;;4.41;80.08
26436;BME280;15351;52.408;16.826;2024-01-15T03:40:09;98300.58;;;4.40;80.06
26436;BME280;15351;52.408;16.826;2024-01-15T03:42:35;98300.70;;;4.40;80.14
26436;BME280;15351;52.408;16.826;2024-01-15T03:45:03;98298.65;;;4.40;80.29
26436;BME280;15351;52.408;16.826;2024-01-15T03:47:31;98302.85;;;4.38;80.15
26436;BME280;15351;52.408;16.826;2024-01-15T03:49:57;98295.20;;;4.35;80.23
26436;BME280;15351;52.408;16.826;2024-01-15T03:52:24;98294.70;;;4.34;80.28
26436;BME280;15351;52.408;16.826;2024-01-15T03:54:50;98299.31;;;4.35;80.53
26436;BME280;15351;52.408;16.826;2024-01-15T03:57:18;98299.20;;;4.33;80.43
26436;BME280;15351;52.408;16.826;2024-01-15T03:59:44;98292.59;;;4.28;80.59
26436;BME280;15351;52.408;16.826;2024-01-15T04:02:13;98299.69;;;4.28;80.56
26436;BME280;15351;52.408;16.826;2024-01-15T04:04:42;98297.98;;;4.25;80.41
26436;BME280;15351;52.408;16.826;2024-01-15T04:07:09;98299.10;;;4.23;80.55
26436;BME280;15351;52.408;16.826;2024-01-15T04:09:36;98296.83;;;4.19;80.53
26436;BME280;15351;52.408;16.826;2024-01-15T04:12:04;98297.16;;;4.20;80.86
26436;BME280;15351;52.408;16.826;2024-01-15T04:14:30;98296.88;;;4.22;80.78
26436;BME280;15351;52.408;16.826;2024-01-15T04:16:57;98298.98;;;4.24;80.88
26436;BME280;15351;52.408;16.826;2024-01-15T04:19:23;98297.80;;;4.21;80.66
26436;BME280;15351;52.408;16.826;2024-01-15T04:21:49;98307.58;;;4.23;80.78
26436;BME280;15351;52.408;16.826;2024-01-15T04:24:16;98300.91;;;4.21;80.81
26436;BME280;15351;52.408;16.826;2024-01-15T04:26:44;98300.64;;;4.19;80.88
26436;BME280;15351;52.408;16.826;2024-01-15T04:29:11;98296.02;;;4.17;80.74
26436;BME280;15351;52.408;16.826;2024-01-15T04:31:37;98290.40;;;4.18;81.03
26436;BME280;15351;52.408;16.826;2024-01-15T04:34:05;98292.18;;;4.19;80.93
26436;BME280;15351;52.408;16.826;2024-01-15T04:36:31;98297.35;;;4.18;80.88
26436;BME280;15351;52.408;16.826;2024-01-15T04:38:58;98296.59;;;4.16;80.77
26436;BME280;15351;52.408;16.826;2024-01-15T04:41:25;98290.02;;;4.12;80.83
26436;BME280;15351;52.408;16.826;2024-01-15T04:43:51;98291.38;;;4.09;80.70
26436;BME280;15351;52.408;16.826;2024-01-15T04:46:19;98292.90;;;4.06;80.81
26436;BME280;15351;52.408;16.826;2024-01-15T04:48:45;98288.63;;;4.08;80.82
26436;BME280;15351;52.408;16.826;2024-01-15T04:51:11;98289.86;;;4.08;80.59
26436;BME280;15351;52.408;16.826;2024-01-15T04:53:39;98282.33;;;4.05;80.38
26436;BME280;15351;52.408;16.826;2024-01-15T04:56:05;98275.95;;;4.02;80.52
26436;BME280;15351;52.408;16.826;2024-01-15T04:58:31;98278.68;;;4.05;80.38
26436;BME280;15351;52.408;16.826;2024-01-15T05:00:59;98282.61;;;4.09;80.47
26436;BME280;15351;52.408;16.826;2024-01-15T05:03:25;98284.33;;;4.10;80.29
26436;BME280;15351;52.408;16.826;2024-01-15T05:05:51;98287.12;;;4.09;80.21
26436;BME280;15351;52.408;16.826;2024-01-15T05:08:18;98287.13;;;4.07;80.20
26436;BME280;15351;52.408;16.826;2024-01-15T05:10:45;98285.98;;;4.08;80.43
26436;BME280;15351;52.408;16.826;2024-01-15T05:13:11;98287.14;;;4.11;80.36
26436;BME280;15351;52.408;16.826;2024-01-15T05:15:37;98282.83;;;4.10;80.40
26436;BME280;15351;52.408;16.826;2024-01-15T05:18:04;98284.36;;;4.12;80.46
26436;BME280;15351;52.408;16.826;2024-01-15T05:20:31;98280.39;;;4.10;80.26
26436;BME280;15351;52.408;16.826;2024-01-15T05:22:57;98281.95;;;4.09;80.16
26436;BME280;15351;52.408;16.826;2024-01-15T05:25:23;98280.80;;;4.06;80.15
26436;BME280;15351;52.408;16.826;2024-01-15T05:27:49;98272.90;;;4.05;80.23
26436;BME280;15351;52.408;16.826;2024-01-15T05:30:16;98277.80;;;4.03;80.22
26436;BME280;15351;52.408;16.826;2024-01-15T05:32:42;98281.52;;;4.01;80.21
26436;BME280;15351;52.408;16.826;2024-01-15T05:35:08;98284.14;;;4.01;80.21
26436;BME280;15351;52.408;16.826;2024-01-15T05:37:35;98286.63;;;4.04;80.39
26436;BME280;15351;52.408;16.826;2024-01-15T05:40:01;98283.63;;;4.03;80.29
26436;BME280;15351;52.408;16.826;2024-01-15T05:42:29;98275.98;;;4.01;80.17
26436;BME280;15351;52.408;16.826;2024-01-15T05:44:56;98275.69;;;4.02;80.37
26436;BME280;15351;52.408;16.826;2024-01-15T05:47:23;98277.27;;;4.06;80.22
26436;BME280;15351;52.408;16.826;2024-01-15T05:49:50;98273.48;;;4.08;80.11
26436;BME280;15351;52.408;16.826;2024-01-15T05:52:17;98271.59;;;4.08;79.95
26436;BME280;15351;52.408;16.826;2024-01-15T05:54:43;98272.63;;;4.06;79.80
26436;BME280;15351;52.408;16.826;2024-01-15T05:57:09;98271.83;;;4.07;79.81
26436;BME280;15351;52.408;16.826;2024-01-15T05:59:36;98270.81;;;4.07;79.85
26436;BME280;15351;52.408;16.826;2024-01-15T06:02:03;98268.20;;;4.08;79.69
26436;BME280;15351;52.408;16.826;2024-01-15T06:04:30;98261.96;;;4.09;79.47
26436;BME280;15351;52.408;16.826;2024-01-15T06:06:56;98257.30;;;4.11;79.35
26436;BME280;15351;52.408;16.826;2024-01-15T06:09:24;98252.59;;;4.10;79.31
26436;BME280;15351;52.408;16.826;2024-01-15T06:11:50;98253.48;;;4.10;79.22
26436;BME280;15351;52.408;16.826;2024-01-15T06:14:16;98252.05;;;4.10;79.15
26436;BME280;15351;52.408;16.826;2024-01-15T06:16:42;98253.13;;;4.12;79.12
26436;BME280;15351;52.408;16.826;2024-01-15T06:19:08;98252.90;;;4.09;78.81
26436;BME280;15351;52.408;16.826;2024-01-15T06:21:35;98255.52;;;4.05;78.79
26436;BME280;15351;52.408;16.826;2024-01-15T06:24:01;98250.93;;;4.04;78.90
26436;BME280;15351;52.408;16.826;2024-01-15T06:26:29;98244.70;;;4.07;79.01
26436;BME280;15351;52.408;16.826;2024-01-15T06:28:55;98247.61;;;4.09;78.86
26436;BME280;15351;52.408;16.826;2024-01-15T06:31:21;98245.41;;;4.11;78.85
26436;BME280;15351;52.408;16.826;2024-01-15T06:33:47;98247.58;;;4.10;78.48
26436;BME280;15351;52.408;16.826;2024-01-15T06:36:15;98246.27;;;4.10;78.47
26436;BME280;15351;52.408;16.826;2024-01-15T06:38:45;98248.09;;;4.05;78.43
26436;BME280;15351;52.408;16.826;2024-01-15T06:41:11;98245.95;;;4.02;78.54
26436;BME280;15351;52.408;16.826;2024-01-15T06:43:37;98246.98;;;4.02;78.60
26436;BME280;15351;52.408;16.826;2024-01-15T06:46:04;98242.81;;;4.04;78.60
26436;BME280;15351;52.408;16.826;2024-01-15T06:48:31;98243.71;;;4.04;78.28
26436;BME280;15351;52.408;16.826;2024-01-15T06:50:57;98243.50;;;4.02;78.50
26436;BME280;15351;52.408;16.826;2024-01-15T06:53:23;98256.06;;;4.04;78.50
26436;BME280;15351;52.408;16.826;2024-01-15T06:55:50;98258.93;;;4.03;78.50
26436;BME280;15351;52.408;16.826;2024-01-15T06:58:17;98251.75;;;4.04;78.52
26436;BME280;15351;52.408;16.826;2024-01-15T07:00:44;98255.29;;;4.04;78.42
26436;BME280;15351;52.408;16.826;2024-01-15T07:03:12;98254.52;;;4.06;78.38
26436;BME280;15351;52.408;16.826;2024-01-15T07:05:39;98252.33;;;4.06;78.41
26436;BME280;15351;52.408;16.826;2024-01-15T07:08:05;98256.70;;;4.07;78.51
26436;BME280;15351;52.408;16.826;2024-01-15T07:10:32;98263.70;;;4.07;78.46
26436;BME280;15351;52.408;16.826;2024-01-15T07:12:59;98261.67;;;4.07;78.37
26436;BME280;15351;52.408;16.826;2024-01-15T07:15:26;98269.02;;;4.08;78.49
26436;BME280;15351;52.408;16.826;2024-01-15T07:17:53;98270.38;;;4.09;78.22
26436;BME280;15351;52.408;16.826;2024-01-15T07:20:19;98275.19;;;4.07;78.27
26436;BME280;15351;52.408;16.826;2024-01-15T07:22:45;98272.20;;;4.05;78.12
26436;BME280;15351;52.408;16.826;2024-01-15T07:25:11;98269.31;;;4.04;78.26
26436;BME280;15351;52.408;16.826;2024-01-15T07:27:39;98279.66;;;4.07;78.33
26436;BME280;15351;52.408;16.826;2024-01-15T07:30:08;98275.48;;;4.11;78.32
26436;BME280;15351;52.408;16.826;2024-01-15T07:32:36;98274.30;;;4.12;78.02
26436;BME280;15351;52.408;16.826;2024-01-15T07:35:03;98271.63;;;4.12;78.04
26436;BME280;15351;52.408;16.826;2024-01-15T07:37:30;98273.84;;;4.11;78.04
26436;BME280;15351;52.408;16.826;2024-01-15T07:39:56;98274.54;;;4.10;77.94
26436;BME280;15351;52.408;16.826;2024-01-15T07:42:22;98275.12;;;4.11;77.98
26436;BME280;15351;52.408;16.826;2024-01-15T07:44:50;98272.24;;;4.11;77.72
26436;BME280;15351;52.408;16.826;2024-01-15T07:47:17;98274.55;;;4.12;77.70
26436;BME280;15351;52.408;16.826;2024-01-15T07:49:45;98269.55;;;4.11;77.67
26436;BME280;15351;52.408;16.826;2024-01-15T07:52:11;98263.34;;;4.10;77.65
26436;BME280;15351;52.408;16.826;2024-01-15T07:54:39;98258.42;;;4.12;77.75
26436;BME280;15351;52.408;16.826;2024-01-15T07:57:05;98252.98;;;4.14;77.69
26436;BME280;15351;52.408;16.826;2024-01-15T07:59:32;98256.59;;;4.17;77.54
26436;BME280;15351;52.408;16.826;2024-01-15T08:01:59;98259.15;;;4.18;77.50
26436;BME280;15351;52.408;16.826;2024-01-15T08:04:26;98256.67;;;4.17;77.49
26436;BME280;15351;52.408;16.826;2024-01-15T08:06:54;98258.84;;;4.17;77.58
26436;BME280;15351;52.408;16.826;2024-01-15T08:09:20;98247.09;;;4.16;77.64
26436;BME280;15351;52.408;16.826;2024-01-15T08:11:47;98245.95;;;4.16;77.68
26436;BME280;15351;52.408;16.826;2024-01-15T08:14:17;98240.64;;;4.18;77.61
26436;BME280;15351;52.408;16.826;2024-01-15T08:16:44;98243.10;;;4.19;77.58
26436;BME280;15351;52.408;16.826;2024-01-15T08:19:35;98240.92;;;4.18;77.49
26436;BME280;15351;52.408;16.826;2024-01-15T08:22:02;98242.44;;;4.18;77.68
26436;BME280;15351;52.408;16.826;2024-01-15T08:24:29;98238.06;;;4.22;77.63
26436;BME280;15351;52.408;16.826;2024-01-15T08:26:55;98234.09;;;4.22;77.43
26436;BME280;15351;52.408;16.826;2024-01-15T08:29:23;98234.77;;;4.24;77.26
26436;BME280;15351;52.408;16.826;2024-01-15T08:31:50;98230.46;;;4.21;77.53
26436;BME280;15351;52.408;16.826;2024-01-15T08:34:16;98235.19;;;4.22;77.55
26436;BME280;15351;52.408;16.826;2024-01-15T08:36:42;98233.84;;;4.19;77.72
26436;BME280;15351;52.408;16.826;2024-01-15T08:39:09;98239.30;;;4.20;77.74
26436;BME280;15351;52.408;16.826;2024-01-15T08:41:36;98244.02;;;4.17;77.77
26436;BME280;15351;52.408;16.826;2024-01-15T08:44:03;98240.14;;;4.13;77.82
26436;BME280;15351;52.408;16.826;2024-01-15T08:46:29;98238.27;;;4.11;78.04
26436;BME280;15351;52.408;16.826;2024-01-15T08:48:56;98237.30;;;4.13;77.98
26436;BME280;15351;52.408;16.826;2024-01-15T08:51:23;98233.72;;;4.12;77.89
26436;BME280;15351;52.408;16.826;2024-01-15T08:53:50;98238.63;;;4.10;77.95
26436;BME280;15351;52.408;16.826;2024-01-15T08:56:15;98234.31;;;4.08;77.82
26436;BME280;15351;52.408;16.826;2024-01-15T08:58:42;98234.45;;;4.10;77.88
26436;BME280;15351;52.408;16.826;2024-01-15T09:01:07;98233.91;;;4.14;77.91
26436;BME280;15351;52.408;16.826;2024-01-15T09:03:34;98226.28;;;4.14;77.89
26436;BME280;15351;52.408;16.826;2024-01-15T09:06:00;98217.48;;;4.18;77.99
26436;BME280;15351;52.408;16.826;2024-01-15T09:08:27;98232.33;;;4.17;77.86
26436;BME280;15351;52.408;16.826;2024-01-15T09:10:54;98220.91;;;4.15;78.03
26436;BME280;15351;52.408;16.826;2024-01-15T09:13:21;98226.11;;;4.18;77.93
26436;BME280;15351;52.408;16.826;2024-01-15T09:15:47;98224.05;;;4.18;77.96
26436;BME280;15351;52.408;16.826;2024-01-15T09:18:15;98218.25;;;4.20;78.05
26436;BME280;15351;52.408;16.826;2024-01-15T09:20:41;98239.29;;;4.19;78.19
26436;BME280;15351;52.408;16.826;2024-01-15T09:23:08;98264.55;;;4.17;78.22
26436;BME280;15351;52.408;16.826;2024-01-15T09:25:34;98262.30;;;4.13;78.52
26436;BME280;15351;52.408;16.826;2024-01-15T09:28:01;98261.95;;;4.11;78.72
26436;BME280;15351;52.408;16.826;2024-01-15T09:30:28;98263.77;;;4.09;78.93
26436;BME280;15351;52.408;16.826;2024-01-15T09:32:55;98259.13;;;4.06;79.18
26436;BME280;15351;52.408;16.826;2024-01-15T09:35:20;98265.86;;;4.08;79.44
26436;BME280;15351;52.408;16.826;2024-01-15T09:37:48;98264.83;;;4.08;79.48
26436;BME280;15351;52.408;16.826;2024-01-15T09:40:15;98265.69;;;4.08;79.68
26436;BME280;15351;52.408;16.826;2024-01-15T09:42:43;98266.60;;;4.13;79.64
26436;BME280;15351;52.408;16.826;2024-01-15T09:45:09;98265.37;;;4.13;79.76
26436;BME280;15351;52.408;16.826;2024-01-15T09:47:36;98260.42;;;4.10;79.77
26436;BME280;15351;52.408;16.826;2024-01-15T09:50:04;98251.69;;;4.12;79.77
26436;BME280;15351;52.408;16.826;2024-01-15T09:52:31;98254.80;;;4.15;79.69
26436;BME280;15351;52.408;16.826;2024-01-15T09:55:01;98249.84;;;4.21;79.72
26436;BME280;15351;52.408;16.826;2024-01-15T09:57:29;98243.61;;;4.31;79.48
26436;BME280;15351;52.408;16.826;2024-01-15T09:59:57;98248.27;;;4.39;79.21
26436;BME280;15351;52.408;16.826;2024-01-15T10:02:26;98247.06;;;4.47;79.04
26436;BME280;15351;52.408;16.826;2024-01-15T10:04:52;98255.48;;;4.59;79.01
26436;BME280;15351;52.408;16.826;2024-01-15T10:07:21;98250.15;;;4.78;78.74
26436;BME280;15351;52.408;16.826;2024-01-15T10:09:49;98252.08;;;4.78;78.35
26436;BME280;15351;52.408;16.826;2024-01-15T10:12:16;98253.02;;;4.79;78.17
26436;BME280;15351;52.408;16.826;2024-01-15T10:14:43;98246.77;;;4.86;78.21
26436;BME280;15351;52.408;16.826;2024-01-15T10:17:13;98252.91;;;4.88;78.09
26436;BME280;15351;52.408;16.826;2024-01-15T10:19:40;98251.57;;;4.85;77.86
26436;BME280;15351;52.408;16.826;2024-01-15T10:22:09;98250.86;;;4.81;77.73
26436;BME280;15351;52.408;16.826;2024-01-15T10:24:40;98248.90;;;4.77;77.68
26436;BME280;15351;52.408;16.826;2024-01-15T10:27:10;98252.44;;;4.71;77.47
26436;BME280;15351;52.408;16.826;2024-01-15T10:29:37;98248.47;;;4.66;77.67
26436;BME280;15351;52.408;16.826;2024-01-15T10:32:07;98256.05;;;4.63;77.76
26436;BME280;15351;52.408;16.826;2024-01-15T10:34:41;98248.05;;;4.65;77.76
26436;BME280;15351;52.408;16.826;2024-01-15T10:37:09;98245.56;;;4.61;77.47
26436;BME280;15351;52.408;16.826;2024-01-15T10:39:36;98242.95;;;4.60;77.42
26436;BME280;15351;52.408;16.826;2024-01-15T10:42:05;98243.12;;;4.52;77.23
26436;BME280;15351;52.408;16.826;2024-01-15T10:44:35;98243.50;;;4.49;77.52
26436;BME280;15351;52.408;16.826;2024-01-15T10:47:01;98246.46;;;4.49;77.52
26436;BME280;15351;52.408;16.826;2024-01-15T10:49:28;98249.88;;;4.53;77.63
26436;BME280;15351;52.408;16.826;2024-01-15T10:51:56;98250.02;;;4.58;77.36
26436;BME280;15351;52.408;16.826;2024-01-15T10:54:23;98250.88;;;4.55;77.07
26436;BME280;15351;52.408;16.826;2024-01-15T10:56:50;98254.59;;;4.52;77.24
26436;BME280;15351;52.408;16.826;2024-01-15T10:59:23;98249.20;;;4.53;77.20
26436;BME280;15351;52.408;16.826;2024-01-15T11:01:51;98249.10;;;4.51;77.30
26436;BME280;15351;52.408;16.826;2024-01-15T11:04:22;98247.68;;;4.52;77.18
26436;BME280;15351;52.408;16.826;2024-01-15T11:06:53;98246.33;;;4.56;76.93
26436;BME280;15351;52.408;16.826;2024-01-15T11:09:19;98245.14;;;4.55;76.88
26436;BME280;15351;52.408;16.826;2024-01-15T11:11:47;98246.27;;;4.58;77.11
26436;BME280;15351;52.408;16.826;2024-01-15T11:14:39;98251.08;;;4.58;77.00
26436;BME280;15351;52.408;16.826;2024-01-15T11:17:06;98244.21;;;4.57;76.94
26436;BME280;15351;52.408;16.826;2024-01-15T11:22:09;98241.75;;;4.63;76.77
26436;BME280;15351;52.408;16.826;2024-01-15T11:24:39;98239.48;;;4.67;76.80
26436;BME280;15351;52.408;16.826;2024-01-15T11:27:09;98237.45;;;4.70;76.69
26436;BME280;15351;52.408;16.826;2024-01-15T11:29:36;98239.76;;;4.72;76.65
26436;BME280;15351;52.408;16.826;2024-01-15T11:32:04;98239.80;;;4.72;76.07
26436;BME280;15351;52.408;16.826;2024-01-15T11:35:00;98234.18;;;4.67;75.99
26436;BME280;15351;52.408;16.826;2024-01-15T11:37:29;98229.25;;;4.66;76.01
26436;BME280;15351;52.408;16.826;2024-01-15T11:40:19;98231.04;;;4.64;75.85
26436;BME280;15351;52.408;16.826;2024-01-15T11:42:46;98229.81;;;4.58;75.99
26436;BME280;15351;52.408;16.826;2024-01-15T11:45:22;98224.38;;;4.56;76.19
26436;BME280;15351;52.408;16.826;2024-01-15T11:50:33;98210.24;;;4.61;76.30
26436;BME280;15351;52.408;16.826;2024-01-15T11:53:01;98215.59;;;4.62;76.18
26436;BME280;15351;52.408;16.826;2024-01-15T11:55:38;98214.40;;;4.62;76.28
26436;BME280;15351;52.408;16.826;2024-01-15T11:58:08;98209.48;;;4.62;76.07
26436;BME280;15351;52.408;16.826;2024-01-15T12:00:44;98206.42;;;4.62;75.96
26436;BME280;15351;52.408;16.826;2024-01-15T12:03:12;98209.96;;;4.63;75.92
26436;BME280;15351;52.408;16.826;2024-01-15T12:05:38;98211.52;;;4.62;75.96
26436;BME280;15351;52.408;16.826;2024-01-15T12:08:05;98208.62;;;4.57;75.94
26436;BME280;15351;52.408;16.826;2024-01-15T12:10:40;98210.77;;;4.54;76.27
26436;BME280;15351;52.408;16.826;2024-01-15T12:13:14;98209.64;;;4.56;76.38
26436;BME280;15351;52.408;16.826;2024-01-15T12:15:42;98213.98;;;4.56;76.29
26436;BME280;15351;52.408;16.826;2024-01-15T12:18:11;98215.14;;;4.56;76.61
26436;BME280;15351;52.408;16.826;2024-01-15T12:20:39;98209.88;;;4.56;76.66
26436;BME280;15351;52.408;16.826;2024-01-15T12:23:06;98200.45;;;4.58;76.74
26436;BME280;15351;52.408;16.826;2024-01-15T12:25:33;98200.30;;;4.66;76.70
26436;BME280;15351;52.408;16.826;2024-01-15T12:28:01;98196.04;;;4.70;76.59
26436;BME280;15351;52.408;16.826;2024-01-15T12:30:28;98189.95;;;4.74;76.16
26436;BME280;15351;52.408;16.826;2024-01-15T12:32:55;98186.84;;;4.78;75.96
26436;BME280;15351;52.408;16.826;2024-01-15T12:35:24;98187.80;;;4.79;75.66
26436;BME280;15351;52.408;16.826;2024-01-15T12:37:54;98188.90;;;4.78;75.68
26436;BME280;15351;52.408;16.826;2024-01-15T12:40:23;98188.67;;;4.82;75.54
26436;BME280;15351;52.408;16.826;2024-01-15T12:42:50;98183.95;;;4.85;75.22
26436;BME280;15351;52.408;16.826;2024-01-15T12:45:17;98188.10;;;4.90;75.00
26436;BME280;15351;52.408;16.826;2024-01-15T12:47:44;98179.60;;;4.92;74.72
26436;BME280;15351;52.408;16.826;2024-01-15T12:50:13;98185.06;;;4.91;74.49
26436;BME280;15351;52.408;16.826;2024-01-15T12:52:40;98185.16;;;4.88;74.53
26436;BME280;15351;52.408;16.826;2024-01-15T12:55:10;98184.44;;;4.90;74.61
26436;BME280;15351;52.408;16.826;2024-01-15T12:57:37;98191.31;;;4.92;74.38
26436;BME280;15351;52.408;16.826;2024-01-15T13:00:04;98185.64;;;4.92;74.07
26436;BME280;15351;52.408;16.826;2024-01-15T13:02:39;98183.42;;;4.92;73.90
26436;BME280;15351;52.408;16.826;2024-01-15T13:05:11;98179.90;;;4.87;73.78
26436;BME280;15351;52.408;16.826;2024-01-15T13:07:38;98177.91;;;4.84;73.91